Time;durP1;ratioP1;P1;durP2;ratioP2;P2;SDS_P1;SDS_P2;PMS_P1;PMS_P2;Temp;Humidity;BMP_temperature;BMP_pressure;BME280_temperature;BME280_humidity;BME280_pressure;Samples;Min_cycle;Max_cycle;Signal;HPM_P1;HPM_P2
2023/07/12 00:00:31;;;;;;;1.40;0.87;;;22.30;70.60;;;;;;4944865;28;20625;-19
2023/07/12 00:02:59;;;;;;;1.00;0.70;;;22.30;70.70;;;;;;4969652;28;20069;-19
2023/07/12 00:05:28;;;;;;;1.30;0.80;;;22.30;70.80;;;;;;4949978;28;20171;-20
2023/07/12 00:07:56;;;;;;;1.93;0.70;;;22.30;70.80;;;;;;4962241;28;20508;-20
2023/07/12 00:10:24;;;;;;;2.00;1.10;;;22.30;70.70;;;;;;4955875;28;20039;-20
2023/07/12 00:12:50;;;;;;;1.23;0.88;;;22.30;70.70;;;;;;4980045;28;20127;-19
2023/07/12 00:15:25;;;;;;;1.98;0.90;;;22.30;70.60;;;;;;4965983;28;20038;-20
2023/07/12 00:17:53;;;;;;;1.55;0.73;;;22.30;70.70;;;;;;4955949;28;20049;-20
2023/07/12 00:20:21;;;;;;;1.83;0.73;;;22.30;70.70;;;;;;4939064;28;20039;-20
2023/07/12 00:22:47;;;;;;;1.45;0.80;;;22.30;70.60;;;;;;4969638;28;20030;-19
2023/07/12 00:25:17;;;;;;;1.20;0.77;;;22.30;70.60;;;;;;4962968;28;20092;-20
2023/07/12 00:27:43;;;;;;;1.25;0.80;;;22.30;70.60;;;;;;4971628;28;20121;-20
2023/07/12 00:30:16;;;;;;;1.77;0.95;;;22.40;70.50;;;;;;4967028;28;20039;-20
2023/07/12 00:32:42;;;;;;;0.90;0.77;;;22.40;70.40;;;;;;4947720;28;20520;-19
2023/07/12 00:35:12;;;;;;;1.70;0.80;;;22.40;70.30;;;;;;4952501;28;20057;-20
2023/07/12 00:37:37;;;;;;;1.40;0.77;;;22.40;70.10;;;;;;4960951;28;20045;-20
2023/07/12 00:40:22;;;;;;;0.83;0.70;;;22.40;70.70;;;;;;4940716;28;20034;-20
2023/07/12 00:43:09;;;;;;;1.80;0.90;;;22.40;69.60;;;;;;4970981;28;20128;-19
2023/07/12 00:45:35;;;;;;;1.20;0.80;;;22.30;69.50;;;;;;4957492;28;20515;-20
2023/07/12 00:48:01;;;;;;;1.33;0.80;;;22.30;69.40;;;;;;4943755;28;20395;-20
2023/07/12 00:50:27;;;;;;;1.60;0.80;;;22.30;69.40;;;;;;4965610;28;20157;-20
2023/07/12 00:52:53;;;;;;;1.27;0.80;;;22.30;69.30;;;;;;4941206;28;20033;-20
2023/07/12 00:55:54;;;;;;;1.38;0.60;;;22.20;69.30;;;;;;4955710;28;20085;-20
2023/07/12 00:58:21;;;;;;;0.95;0.70;;;22.00;70.10;;;;;;4982071;28;20030;-19
2023/07/12 01:00:47;;;;;;;1.33;0.80;;;21.80;69.40;;;;;;4959817;28;20409;-18
2023/07/12 01:03:14;;;;;;;2.28;0.73;;;21.70;69.60;;;;;;4946703;28;20033;-18
2023/07/12 01:05:44;;;;;;;0.57;0.57;;;21.60;69.90;;;;;;4957015;28;20146;-19
2023/07/12 01:08:11;;;;;;;1.70;0.80;;;21.40;70.30;;;;;;4960593;28;20030;-18
2023/07/12 01:10:38;;;;;;;1.58;0.60;;;21.30;70.40;;;;;;4956896;28;20035;-18
2023/07/12 01:13:06;;;;;;;1.42;0.77;;;21.20;70.90;;;;;;4966700;28;20049;-18
2023/07/12 01:15:33;;;;;;;1.40;0.70;;;21.10;71.10;;;;;;4971807;28;20097;-19
2023/07/12 01:17:59;;;;;;;1.02;0.70;;;21.00;71.30;;;;;;4960403;28;20399;-18
2023/07/12 01:20:25;;;;;;;1.10;0.70;;;20.90;71.60;;;;;;4939263;28;20207;-18
2023/07/12 01:22:53;;;;;;;1.05;0.63;;;20.90;71.80;;;;;;4936207;28;20599;-18
2023/07/12 01:25:35;;;;;;;0.98;0.60;;;20.80;71.90;;;;;;4967141;28;20676;-18
2023/07/12 01:28:01;;;;;;;1.13;0.80;;;20.80;73.30;;;;;;4964331;28;20026;-19
2023/07/12 01:30:27;;;;;;;1.43;0.70;;;20.70;72.10;;;;;;4969744;28;21618;-19
2023/07/12 01:32:53;;;;;;;1.23;0.70;;;20.70;72.40;;;;;;4960196;28;20236;-18
2023/07/12 01:35:19;;;;;;;1.75;0.70;;;20.60;72.40;;;;;;4941073;28;20065;-17
2023/07/12 01:37:45;;;;;;;1.63;0.67;;;20.50;72.70;;;;;;4946923;28;20315;-18
2023/07/12 01:40:11;;;;;;;1.27;0.70;;;20.50;73.30;;;;;;4956688;28;20033;-17
2023/07/12 01:42:37;;;;;;;1.70;0.80;;;20.40;73.50;;;;;;4957031;28;20026;-19
2023/07/12 01:45:03;;;;;;;1.37;0.70;;;20.40;73.70;;;;;;4981953;28;20075;-17
2023/07/12 01:47:30;;;;;;;0.82;0.70;;;20.30;74.50;;;;;;4968535;28;20038;-18
2023/07/12 01:49:56;;;;;;;0.82;0.60;;;20.20;75.60;;;;;;4938843;28;20493;-17
2023/07/12 01:52:22;;;;;;;1.10;0.70;;;20.20;75.40;;;;;;4962668;28;20031;-18
2023/07/12 01:54:49;;;;;;;1.67;0.70;;;20.10;75.70;;;;;;4937061;28;20050;-17
2023/07/12 01:57:15;;;;;;;1.60;0.80;;;20.10;75.80;;;;;;4968144;28;20034;-17
2023/07/12 01:59:41;;;;;;;1.25;0.75;;;20.10;76.10;;;;;;4948988;28;20031;-18
2023/07/12 02:02:07;;;;;;;1.92;0.75;;;20.00;76.40;;;;;;4968882;28;20057;-17
2023/07/12 02:04:33;;;;;;;0.75;0.70;;;20.00;76.80;;;;;;4936057;28;20127;-18
2023/07/12 02:06:59;;;;;;;1.50;0.57;;;20.00;77.10;;;;;;4952556;28;20208;-17
2023/07/12 02:09:33;;;;;;;1.10;0.80;;;20.00;77.30;;;;;;4948461;28;20034;-18
2023/07/12 02:11:58;;;;;;;1.20;0.80;;;20.00;77.40;;;;;;4964735;28;20625;-17
2023/07/12 02:14:24;;;;;;;1.10;0.70;;;20.00;77.90;;;;;;4955488;28;20045;-18
2023/07/12 02:16:50;;;;;;;1.07;0.80;;;20.10;78.20;;;;;;4967931;28;20058;-17
2023/07/12 02:19:15;;;;;;;1.15;0.70;;;20.00;78.20;;;;;;4960079;28;20059;-17
2023/07/12 02:21:41;;;;;;;1.63;0.80;;;20.00;78.30;;;;;;4936850;28;20046;-18
2023/07/12 02:24:07;;;;;;;1.30;0.60;;;20.00;78.40;;;;;;4967451;28;20054;-17
2023/07/12 02:26:34;;;;;;;1.30;0.70;;;20.00;78.60;;;;;;4946125;28;20134;-18
2023/07/12 02:29:00;;;;;;;1.77;0.90;;;19.90;78.60;;;;;;4952227;28;20310;-17
2023/07/12 02:31:28;;;;;;;2.20;0.80;;;19.90;78.60;;;;;;4966109;28;20035;-19
2023/07/12 02:33:53;;;;;;;1.73;0.68;;;19.90;78.60;;;;;;4965870;28;20779;-19
2023/07/12 02:36:19;;;;;;;1.83;0.70;;;19.90;78.70;;;;;;4944425;28;20030;-19
2023/07/12 02:38:46;;;;;;;1.25;0.80;;;19.80;78.90;;;;;;4963745;28;20416;-20
2023/07/12 02:41:12;;;;;;;1.00;0.63;;;19.80;79.10;;;;;;4949138;28;20042;-20
2023/07/12 02:43:38;;;;;;;1.45;0.70;;;19.70;79.30;;;;;;4965736;28;20033;-19
2023/07/12 02:46:04;;;;;;;1.20;0.60;;;19.70;79.30;;;;;;4974471;28;20019;-20
2023/07/12 02:48:30;;;;;;;1.52;0.70;;;19.70;79.50;;;;;;4967654;28;20430;-19
2023/07/12 02:50:56;;;;;;;1.63;0.70;;;19.60;80.30;;;;;;4937492;28;20435;-19
2023/07/12 02:53:22;;;;;;;1.17;0.70;;;19.60;80.10;;;;;;4967456;28;20035;-17
2023/07/12 02:55:51;;;;;;;1.90;0.70;;;19.60;80.10;;;;;;4944227;28;20038;-18
2023/07/12 02:58:18;;;;;;;1.67;0.70;;;19.60;80.30;;;;;;4979429;28;20018;-16
2023/07/12 03:00:44;;;;;;;0.80;0.70;;;19.60;80.50;;;;;;4939635;28;20248;-18
2023/07/12 03:03:12;;;;;;;1.17;0.70;;;19.60;80.80;;;;;;4962911;28;20062;-17
2023/07/12 03:05:39;;;;;;;1.27;0.95;;;19.60;80.80;;;;;;4945315;28;20039;-18
2023/07/12 03:08:06;;;;;;;1.50;0.80;;;19.60;81.10;;;;;;4960615;28;20236;-17
2023/07/12 03:10:34;;;;;;;1.17;0.68;;;19.60;81.10;;;;;;4965512;28;20038;-18
2023/07/12 03:13:00;;;;;;;1.42;0.70;;;19.60;81.20;;;;;;4947112;28;20035;-17
2023/07/12 03:15:25;;;;;;;1.13;0.80;;;19.60;81.40;;;;;;4976771;28;20179;-18
2023/07/12 03:17:51;;;;;;;2.17;0.88;;;19.60;81.60;;;;;;4950834;28;20034;-17
2023/07/12 03:20:17;;;;;;;1.63;0.90;;;19.50;81.50;;;;;;4965553;28;20624;-17
2023/07/12 03:22:42;;;;;;;2.78;0.88;;;19.60;81.60;;;;;;4919133;28;20504;-18
2023/07/12 03:25:08;;;;;;;3.30;1.10;;;19.50;81.60;;;;;;4960429;28;20026;-17
2023/07/12 03:27:34;;;;;;;2.47;0.85;;;19.50;81.60;;;;;;4944461;28;20149;-18
2023/07/12 03:29:59;;;;;;;1.50;0.90;;;19.50;81.60;;;;;;4952468;28;20299;-17
2023/07/12 03:32:25;;;;;;;2.63;1.10;;;19.40;81.60;;;;;;4958101;28;20034;-18
2023/07/12 03:34:52;;;;;;;2.13;0.93;;;19.40;81.90;;;;;;4961622;28;20224;-18
2023/07/12 03:37:18;;;;;;;1.90;0.98;;;19.40;82.10;;;;;;4944380;28;20105;-17
2023/07/12 03:39:44;;;;;;;2.38;1.10;;;19.30;82.20;;;;;;4959959;28;20361;-17
2023/07/12 03:42:09;;;;;;;2.00;0.90;;;19.30;83.10;;;;;;4966534;28;20031;-17
2023/07/12 03:44:35;;;;;;;1.67;0.93;;;19.30;82.50;;;;;;4943015;28;20588;-18
2023/07/12 03:47:02;;;;;;;2.25;0.95;;;19.30;82.40;;;;;;4966026;28;20038;-18
2023/07/12 03:49:28;;;;;;;2.30;1.00;;;19.20;82.30;;;;;;4962376;28;20095;-19
2023/07/12 03:51:54;;;;;;;2.30;0.90;;;19.20;82.40;;;;;;4950214;28;20357;-17
2023/07/12 03:54:21;;;;;;;3.30;1.00;;;19.20;82.60;;;;;;4965806;28;20466;-17
2023/07/12 03:56:47;;;;;;;2.75;1.20;;;19.20;82.70;;;;;;4977440;28;20507;-17
2023/07/12 03:59:13;;;;;;;2.23;1.00;;;19.20;82.90;;;;;;4946462;28;20027;-18
2023/07/12 04:01:39;;;;;;;2.38;1.00;;;19.20;83.10;;;;;;4977241;28;20070;-18
2023/07/12 04:04:05;;;;;;;2.15;1.00;;;19.20;83.40;;;;;;4921946;28;20493;-18
2023/07/12 04:06:31;;;;;;;2.85;1.10;;;19.20;83.60;;;;;;4960284;28;20034;-19
2023/07/12 04:08:57;;;;;;;2.07;1.00;;;19.20;83.70;;;;;;4951845;28;20034;-17
2023/07/12 04:11:26;;;;;;;2.92;1.20;;;19.20;83.80;;;;;;4965816;28;20046;-18
2023/07/12 04:13:51;;;;;;;1.63;1.10;;;19.20;84.70;;;;;;4942722;28;20144;-18
2023/07/12 04:16:17;;;;;;;2.43;1.10;;;19.20;84.00;;;;;;4963376;28;20030;-17
2023/07/12 04:18:43;;;;;;;2.90;1.20;;;19.20;84.20;;;;;;4952922;28;20026;-18
2023/07/12 04:21:09;;;;;;;2.37;1.20;;;19.30;84.40;;;;;;4966786;28;20031;-18
2023/07/12 04:23:34;;;;;;;3.72;1.38;;;19.30;84.40;;;;;;4933366;28;20057;-18
2023/07/12 04:26:03;;;;;;;3.95;1.15;;;19.30;84.50;;;;;;4962583;28;20185;-18
2023/07/12 04:28:31;;;;;;;3.13;1.10;;;19.30;84.50;;;;;;4947645;28;20022;-18
2023/07/12 04:31:03;;;;;;;2.25;1.30;;;19.30;84.60;;;;;;4959183;28;20350;-18
2023/07/12 04:33:28;;;;;;;2.95;1.05;;;19.30;84.80;;;;;;4960838;28;20027;-19
2023/07/12 04:35:54;;;;;;;3.33;1.33;;;19.30;84.70;;;;;;4963139;28;20027;-18
2023/07/12 04:38:20;;;;;;;2.80;1.40;;;19.30;84.70;;;;;;4962628;28;20088;-18
2023/07/12 04:40:55;;;;;;;3.00;1.20;;;19.30;84.80;;;;;;4963474;28;20056;-18
2023/07/12 04:43:22;;;;;;;3.70;1.30;;;19.30;84.90;;;;;;4981970;28;20038;-18
2023/07/12 04:45:48;;;;;;;3.75;1.33;;;19.30;85.00;;;;;;4962563;28;20870;-18
2023/07/12 04:48:14;;;;;;;2.33;1.48;;;19.30;85.10;;;;;;4968416;28;20089;-19
2023/07/12 04:50:40;;;;;;;2.35;1.30;;;19.30;85.20;;;;;;4953318;28;20113;-18
2023/07/12 04:53:05;;;;;;;2.53;1.30;;;19.30;85.40;;;;;;4940436;28;20493;-18
2023/07/12 04:55:31;;;;;;;1.85;1.33;;;19.40;85.60;;;;;;4964637;28;20026;-19
2023/07/12 04:57:57;;;;;;;4.07;1.33;;;19.40;85.90;;;;;;4966209;28;20501;-18
2023/07/12 05:00:23;;;;;;;3.90;1.60;;;19.40;86.00;;;;;;4965889;28;20317;-19
2023/07/12 05:02:53;;;;;;;2.40;1.60;;;19.40;86.20;;;;;;4952347;28;20386;-18
2023/07/12 05:05:20;;;;;;;2.63;1.70;;;19.40;86.20;;;;;;4955589;28;20113;-18
2023/07/12 05:07:46;;;;;;;3.90;1.50;;;19.50;86.30;;;;;;4965305;28;20515;-19
2023/07/12 05:10:12;;;;;;;3.25;1.50;;;19.50;86.50;;;;;;4944439;28;20428;-18
2023/07/12 05:12:41;;;;;;;2.80;1.50;;;19.50;86.60;;;;;;4966510;28;20023;-18
2023/07/12 05:15:08;;;;;;;4.35;1.70;;;19.50;86.70;;;;;;4972206;28;20026;-18
2023/07/12 05:17:35;;;;;;;5.35;1.70;;;19.60;86.70;;;;;;4949863;28;20066;-19
2023/07/12 05:20:03;;;;;;;1.90;1.37;;;19.60;86.70;;;;;;4937228;28;20058;-18
2023/07/12 05:22:28;;;;;;;2.85;1.50;;;19.60;86.80;;;;;;4981021;28;20097;-19
2023/07/12 05:24:57;;;;;;;1.85;1.42;;;19.60;86.80;;;;;;4928293;28;20508;-19
2023/07/12 05:27:23;;;;;;;2.83;1.60;;;19.60;87.00;;;;;;4976402;28;20177;-19
2023/07/12 05:29:48;;;;;;;3.37;1.53;;;19.60;87.10;;;;;;4972342;28;20674;-18
2023/07/12 05:32:14;;;;;;;2.95;1.58;;;19.70;87.30;;;;;;4962721;28;20026;-19
2023/07/12 05:34:41;;;;;;;3.20;1.60;;;19.70;87.30;;;;;;4949287;28;20520;-18
2023/07/12 05:37:08;;;;;;;5.82;1.48;;;19.70;87.30;;;;;;4953140;28;20019;-19
2023/07/12 05:39:33;;;;;;;3.45;1.40;;;19.70;87.30;;;;;;4943557;28;20113;-18
2023/07/12 05:41:59;;;;;;;3.70;1.57;;;19.80;88.10;;;;;;4965657;28;20026;-19
2023/07/12 05:44:25;;;;;;;2.20;1.40;;;19.80;87.40;;;;;;4964939;28;20479;-18
2023/07/12 05:46:51;;;;;;;3.25;1.33;;;19.80;87.30;;;;;;4964542;28;20035;-18
2023/07/12 05:49:16;;;;;;;2.53;1.40;;;19.80;87.20;;;;;;4942909;28;20668;-19
2023/07/12 05:51:43;;;;;;;2.63;1.50;;;19.80;87.20;;;;;;4955778;28;20042;-18
2023/07/12 05:54:08;;;;;;;3.27;1.67;;;19.80;87.50;;;;;;4945596;28;20473;-19
2023/07/12 05:56:34;;;;;;;4.10;1.60;;;19.80;87.70;;;;;;4961188;28;20030;-19
2023/07/12 05:59:00;;;;;;;3.90;1.38;;;19.80;88.00;;;;;;4972824;28;20504;-19
2023/07/12 06:01:26;;;;;;;2.10;1.40;;;19.90;88.20;;;;;;4967080;28;20153;-19
2023/07/12 06:03:53;;;;;;;2.35;1.25;;;19.90;88.20;;;;;;4949474;28;20125;-19
2023/07/12 06:06:18;;;;;;;2.90;1.45;;;20.00;88.20;;;;;;4957525;28;20979;-19
2023/07/12 06:08:44;;;;;;;3.47;1.50;;;20.00;88.30;;;;;;4968530;28;20034;-19
2023/07/12 06:11:10;;;;;;;3.55;1.45;;;20.00;88.30;;;;;;4938609;28;20061;-19
2023/07/12 06:13:36;;;;;;;2.95;1.60;;;20.10;88.50;;;;;;4969155;28;20023;-19
2023/07/12 06:16:04;;;;;;;4.13;1.48;;;20.10;88.40;;;;;;4952913;28;21949;-19
2023/07/12 06:18:30;;;;;;;3.13;1.40;;;20.10;88.40;;;;;;4948095;28;20061;-19
2023/07/12 06:20:59;;;;;;;3.28;1.70;;;20.20;88.60;;;;;;4951718;28;20474;-19
2023/07/12 06:23:25;;;;;;;3.30;1.55;;;20.20;88.40;;;;;;4964157;28;20803;-19
2023/07/12 06:25:51;;;;;;;2.92;1.50;;;20.20;88.50;;;;;;4941013;28;20634;-19
2023/07/12 06:28:17;;;;;;;5.95;2.08;;;20.30;88.60;;;;;;4964924;28;20580;-20
2023/07/12 06:30:43;;;;;;;2.87;1.70;;;20.30;88.60;;;;;;4962205;28;20299;-19
2023/07/12 06:33:10;;;;;;;3.67;1.70;;;20.40;88.90;;;;;;4940014;28;20493;-19
2023/07/12 06:35:36;;;;;;;5.18;1.70;;;20.40;89.00;;;;;;4933851;28;20220;-20
2023/07/12 06:38:02;;;;;;;2.43;1.50;;;20.40;89.00;;;;;;4972686;28;20528;-19
2023/07/12 06:40:27;;;;;;;3.90;1.92;;;20.50;88.90;;;;;;4943701;28;20729;-19
2023/07/12 06:42:53;;;;;;;4.60;1.60;;;20.60;89.20;;;;;;4965054;28;20248;-19
2023/07/12 06:45:18;;;;;;;2.83;1.50;;;20.60;89.00;;;;;;4966861;28;20035;-19
2023/07/12 06:47:44;;;;;;;3.17;1.38;;;20.70;89.10;;;;;;4963435;28;20026;-19
2023/07/12 06:50:10;;;;;;;3.70;1.73;;;20.70;89.30;;;;;;4950823;28;20065;-19
2023/07/12 06:52:35;;;;;;;5.57;1.70;;;20.70;89.20;;;;;;4951180;28;20144;-19
2023/07/12 06:55:02;;;;;;;5.07;1.73;;;20.80;89.10;;;;;;4940586;28;20397;-19
2023/07/12 06:57:27;;;;;;;4.07;1.70;;;20.90;89.00;;;;;;4971351;28;20033;-19
2023/07/12 06:59:53;;;;;;;3.25;1.80;;;20.90;88.60;;;;;;4961842;28;20225;-19
2023/07/12 07:02:18;;;;;;;2.50;1.50;;;20.90;88.80;;;;;;4966847;28;20047;-18
2023/07/12 07:04:44;;;;;;;2.63;1.60;;;21.00;89.00;;;;;;4948037;28;20611;-19
2023/07/12 07:07:10;;;;;;;3.40;1.70;;;21.10;89.30;;;;;;4947364;28;20169;-19
2023/07/12 07:09:39;;;;;;;4.10;1.80;;;21.10;89.20;;;;;;4954392;28;20029;-19
2023/07/12 07:12:06;;;;;;;3.17;1.77;;;21.20;88.90;;;;;;4943907;28;20026;-19
2023/07/12 07:14:32;;;;;;;2.90;1.70;;;21.20;88.80;;;;;;4966300;28;20513;-19
2023/07/12 07:16:58;;;;;;;4.65;1.80;;;21.20;88.40;;;;;;4973217;28;20030;-19
2023/07/12 07:19:23;;;;;;;3.42;1.70;;;21.30;88.40;;;;;;4964195;28;20045;-19
2023/07/12 07:21:52;;;;;;;3.20;1.60;;;21.30;88.20;;;;;;4945902;28;20026;-18
2023/07/12 07:24:18;;;;;;;3.33;1.60;;;21.30;87.80;;;;;;4968276;28;20046;-20
2023/07/12 07:26:44;;;;;;;2.50;1.53;;;21.30;88.10;;;;;;4940547;28;20389;-19
2023/07/12 07:29:10;;;;;;;3.67;1.73;;;21.30;87.90;;;;;;4978689;28;20043;-19
2023/07/12 07:31:36;;;;;;;4.50;1.70;;;21.30;87.70;;;;;;4959570;28;20157;-19
2023/07/12 07:34:02;;;;;;;3.97;1.60;;;21.30;87.70;;;;;;4967884;28;20038;-19
2023/07/12 07:36:28;;;;;;;2.67;1.60;;;21.40;87.70;;;;;;4943213;28;20121;-19
2023/07/12 07:38:54;;;;;;;2.93;1.53;;;21.30;88.00;;;;;;4957069;28;20026;-19
2023/07/12 07:41:19;;;;;;;2.10;1.40;;;21.40;88.10;;;;;;4961287;28;20282;-19
2023/07/12 07:43:45;;;;;;;5.03;1.50;;;21.40;88.00;;;;;;4969132;28;20425;-19
2023/07/12 07:46:13;;;;;;;3.67;1.50;;;21.40;88.10;;;;;;4968800;28;20062;-19
2023/07/12 07:48:38;;;;;;;3.50;1.70;;;21.50;87.90;;;;;;4962821;28;20530;-19
2023/07/12 07:51:06;;;;;;;3.78;1.70;;;21.50;87.90;;;;;;4981435;28;20026;-19
2023/07/12 07:53:32;;;;;;;2.13;1.47;;;21.60;88.00;;;;;;4944690;28;20339;-19
2023/07/12 07:55:57;;;;;;;3.15;1.70;;;21.60;88.20;;;;;;4957737;28;20031;-19
2023/07/12 07:58:23;;;;;;;2.40;1.57;;;21.60;88.00;;;;;;4953384;28;20079;-19
2023/07/12 08:00:51;;;;;;;3.97;1.40;;;21.70;88.90;;;;;;4965610;28;20050;-19
2023/07/12 08:03:17;;;;;;;3.53;1.50;;;21.80;88.10;;;;;;4967512;28;20026;-19
2023/07/12 08:05:42;;;;;;;2.33;1.50;;;21.80;88.10;;;;;;4968980;28;20515;-18
2023/07/12 08:08:08;;;;;;;4.18;1.40;;;21.90;88.20;;;;;;4946882;28;20057;-19
2023/07/12 08:10:35;;;;;;;3.10;1.57;;;22.00;88.50;;;;;;4953856;28;20027;-19
2023/07/12 08:13:01;;;;;;;2.75;1.60;;;22.10;88.10;;;;;;4969110;28;20393;-19
2023/07/12 08:15:28;;;;;;;2.85;1.38;;;22.10;88.10;;;;;;4939510;28;20654;-19
2023/07/12 08:17:54;;;;;;;3.63;1.58;;;22.30;89.30;;;;;;4971373;28;20554;-19
2023/07/12 08:20:20;;;;;;;5.00;1.60;;;22.50;90.60;;;;;;4964331;28;20763;-19
2023/07/12 08:22:47;;;;;;;4.97;1.70;;;22.90;91.70;;;;;;4951652;28;20026;-19
2023/07/12 08:25:14;;;;;;;2.90;1.65;;;23.30;91.70;;;;;;4969201;28;20027;-19
2023/07/12 08:27:40;;;;;;;3.20;1.60;;;23.70;91.40;;;;;;4960907;28;20073;-19
2023/07/12 08:30:07;;;;;;;4.20;1.90;;;24.10;91.20;;;;;;4940597;28;20674;-19
2023/07/12 08:32:34;;;;;;;3.65;1.70;;;24.50;90.80;;;;;;4964059;28;20315;-19
2023/07/12 08:35:00;;;;;;;3.90;1.80;;;24.70;90.50;;;;;;4971256;28;20470;-19
2023/07/12 08:37:27;;;;;;;2.40;1.60;;;25.00;89.60;;;;;;4937859;28;20393;-19
2023/07/12 08:39:53;;;;;;;3.10;1.67;;;25.20;88.20;;;;;;4964862;28;20367;-20
2023/07/12 08:42:43;;;;;;;4.72;1.88;;;25.40;89.50;;;;;;4968437;28;20658;-19
2023/07/12 08:45:28;;;;;;;3.45;1.50;;;25.70;84.90;;;;;;4939948;28;20046;-19
2023/07/12 08:48:02;;;;;;;1.97;1.43;;;25.80;85.00;;;;;;4955571;28;20037;-19
2023/07/12 08:50:31;;;;;;;3.28;1.70;;;25.90;83.50;;;;;;4966984;28;20526;-19
2023/07/12 08:52:58;;;;;;;4.82;1.55;;;25.90;84.20;;;;;;4944953;28;20026;-19
2023/07/12 08:55:25;;;;;;;2.38;1.45;;;25.90;82.70;;;;;;4966365;28;20049;-19
2023/07/12 08:57:58;;;;;;;1.80;1.48;;;25.80;82.70;;;;;;4956092;28;20413;-19
2023/07/12 09:00:32;;;;;;;1.87;1.43;;;25.70;80.60;;;;;;4958244;28;20026;-18
2023/07/12 09:02:58;;;;;;;2.40;1.33;;;25.60;81.10;;;;;;4970229;28;20035;-19
2023/07/12 09:05:24;;;;;;;3.80;1.77;;;25.60;84.30;;;;;;4965668;28;20049;-19
2023/07/12 09:07:50;;;;;;;2.25;1.30;;;25.70;86.60;;;;;;4950434;28;20027;-19
2023/07/12 09:10:45;;;;;;;4.07;1.70;;;26.00;88.60;;;;;;4953479;28;20039;-19
2023/07/12 09:13:13;;;;;;;1.85;1.40;;;26.40;83.00;;;;;;4953408;28;21455;-19
2023/07/12 09:15:49;;;;;;;4.60;1.60;;;26.80;87.30;;;;;;4940401;28;20353;-19
2023/07/12 09:18:28;;;;;;;2.53;1.50;;;27.00;82.10;;;;;;4967150;28;20459;-19
2023/07/12 09:20:56;;;;;;;1.80;1.30;;;27.20;81.00;;;;;;4946161;28;20501;-19
2023/07/12 09:23:22;;;;;;;2.47;1.40;;;27.50;84.50;;;;;;4944375;28;20470;-19
2023/07/12 09:25:55;;;;;;;2.28;1.30;;;27.70;84.30;;;;;;4961159;28;20035;-20
2023/07/12 09:28:21;;;;;;;3.83;1.35;;;27.80;81.10;;;;;;4956491;28;20050;-19
2023/07/12 09:30:53;;;;;;;2.97;1.40;;;28.00;84.40;;;;;;4944716;28;20038;-19
2023/07/12 09:33:24;;;;;;;2.00;1.42;;;28.30;84.30;;;;;;4962848;28;20386;-20
2023/07/12 09:35:51;;;;;;;2.08;1.42;;;28.50;83.30;;;;;;4964396;28;20034;-19
2023/07/12 09:38:23;;;;;;;3.58;1.55;;;28.70;81.00;;;;;;4962691;28;20909;-20
2023/07/12 09:40:51;;;;;;;4.20;1.30;;;28.60;78.00;;;;;;4960914;28;20128;-19
2023/07/12 09:43:26;;;;;;;2.00;1.20;;;28.50;76.70;;;;;;4957508;28;20040;-19
2023/07/12 09:46:23;;;;;;;2.85;1.25;;;28.30;76.00;;;;;;4981298;28;21247;-19
2023/07/12 09:48:59;;;;;;;2.50;1.40;;;28.20;72.30;;;;;;4959736;28;20025;-20
2023/07/12 09:51:40;;;;;;;2.42;1.48;;;28.10;77.20;;;;;;4962888;28;20027;-19
2023/07/12 09:54:24;;;;;;;2.83;1.33;;;28.30;78.90;;;;;;4973307;28;20709;-19
2023/07/12 09:56:53;;;;;;;2.40;1.27;;;28.50;76.80;;;;;;4965035;28;20069;-19
2023/07/12 09:59:42;;;;;;;3.05;1.40;;;28.70;81.10;;;;;;4956061;28;20125;-20
2023/07/12 10:02:25;;;;;;;3.20;1.20;;;29.00;76.50;;;;;;4943504;28;20050;-19
2023/07/12 10:04:55;;;;;;;5.00;1.33;;;29.30;77.70;;;;;;4964531;28;20167;-19
2023/07/12 10:07:42;;;;;;;3.07;1.47;;;29.50;76.70;;;;;;4974397;28;20141;-20
2023/07/12 10:10:27;;;;;;;1.75;1.17;;;29.40;74.20;;;;;;4965083;28;20037;-19
2023/07/12 10:13:19;;;;;;;2.92;1.10;;;29.20;70.20;;;;;;4969869;28;20039;-19
2023/07/12 10:15:46;;;;;;;2.10;1.20;;;28.80;67.90;;;;;;4961238;28;20290;-19
2023/07/12 10:18:27;;;;;;;2.17;1.38;;;28.50;70.90;;;;;;4943675;28;20038;-20
2023/07/12 10:20:54;;;;;;;3.13;1.43;;;28.30;70.90;;;;;;4964633;28;20117;-19
2023/07/12 10:23:25;;;;;;;3.03;1.10;;;28.20;73.60;;;;;;4964092;28;20113;-19
2023/07/12 10:26:00;;;;;;;1.67;1.20;;;28.30;75.10;;;;;;4933502;28;20031;-19
2023/07/12 10:28:35;;;;;;;2.55;1.10;;;28.50;73.60;;;;;;4980196;28;20023;-19
2023/07/12 10:31:25;;;;;;;2.30;1.20;;;28.70;73.30;;;;;;4944371;28;21360;-19
2023/07/12 10:33:54;;;;;;;3.20;1.20;;;28.90;73.00;;;;;;4939150;28;20363;-19
2023/07/12 10:36:25;;;;;;;2.78;1.00;;;29.00;73.40;;;;;;4967750;28;20078;-20
2023/07/12 10:38:51;;;;;;;2.85;1.05;;;29.00;71.00;;;;;;4943263;28;20126;-19
2023/07/12 10:41:44;;;;;;;2.13;1.02;;;28.80;70.70;;;;;;4962761;28;20097;-19
2023/07/12 10:44:19;;;;;;;3.38;1.10;;;28.60;68.60;;;;;;4951477;28;20187;-19
2023/07/12 10:46:56;;;;;;;2.93;1.33;;;28.30;67.60;;;;;;4952777;28;20043;-19
2023/07/12 10:49:47;;;;;;;2.78;1.40;;;28.00;68.30;;;;;;4908964;28;20031;-20
2023/07/12 10:52:28;;;;;;;3.38;1.20;;;27.90;68.30;;;;;;4967498;28;20042;-19
2023/07/12 10:55:03;;;;;;;1.52;1.20;;;28.00;74.10;;;;;;4963083;28;20197;-19
2023/07/12 10:57:48;;;;;;;2.10;1.10;;;28.30;73.10;;;;;;4945038;28;20078;-19
2023/07/12 11:00:23;;;;;;;3.27;1.07;;;28.70;75.50;;;;;;4961242;28;20347;-19
2023/07/12 11:03:15;;;;;;;1.70;1.00;;;29.20;74.20;;;;;;4951748;28;20045;-19
2023/07/12 11:05:56;;;;;;;2.22;0.98;;;29.60;73.60;;;;;;4940391;28;20038;-19
2023/07/12 11:08:31;;;;;;;2.17;1.08;;;30.10;77.50;;;;;;4962623;28;20043;-19
2023/07/12 11:11:20;;;;;;;1.65;1.10;;;30.60;72.10;;;;;;4965189;28;20057;-19
2023/07/12 11:13:51;;;;;;;2.23;1.10;;;31.00;67.70;;;;;;4951975;28;20038;-19
2023/07/12 11:16:19;;;;;;;1.20;1.05;;;31.20;72.30;;;;;;4954685;28;20121;-19
2023/07/12 11:18:54;;;;;;;1.45;1.00;;;31.50;71.30;;;;;;4950611;28;20027;-19
2023/07/12 11:21:40;;;;;;;1.80;1.02;;;31.70;67.90;;;;;;4935643;28;20126;-20
2023/07/12 11:24:24;;;;;;;2.03;1.30;;;32.00;67.50;;;;;;4976648;28;24323;-20
2023/07/12 11:26:57;;;;;;;1.87;1.10;;;32.20;61.20;;;;;;4946272;28;20549;-19
2023/07/12 11:29:25;;;;;;;1.52;1.10;;;32.40;66.00;;;;;;4920128;28;20135;-19
2023/07/12 11:32:29;;;;;;;2.08;0.93;;;32.50;68.40;;;;;;4956030;28;20685;-20
2023/07/12 11:35:19;;;;;;;1.60;0.90;;;32.70;63.40;;;;;;4942617;28;20585;-19
2023/07/12 11:37:48;;;;;;;1.50;1.10;;;32.80;58.50;;;;;;4966067;28;20030;-19
2023/07/12 11:40:23;;;;;;;1.63;0.90;;;32.70;62.90;;;;;;4962475;28;20034;-19
2023/07/12 11:42:49;;;;;;;1.50;0.98;;;32.70;60.60;;;;;;4947002;28;20038;-19
2023/07/12 11:45:19;;;;;;;1.38;0.90;;;32.60;62.80;;;;;;4952864;28;20411;-19
2023/07/12 11:47:48;;;;;;;1.50;1.00;;;32.50;62.20;;;;;;4963067;28;20050;-19
2023/07/12 11:50:28;;;;;;;2.08;1.10;;;32.60;62.20;;;;;;4953422;28;20041;-19
2023/07/12 11:52:55;;;;;;;2.37;1.03;;;32.60;60.00;;;;;;4943449;28;20031;-19
2023/07/12 11:55:25;;;;;;;1.55;1.00;;;32.60;62.60;;;;;;4959667;28;20034;-19
2023/07/12 11:57:51;;;;;;;1.85;1.10;;;32.60;62.20;;;;;;4948224;28;20039;-19
2023/07/12 12:00:19;;;;;;;6.38;1.08;;;32.60;61.20;;;;;;4958013;28;20496;-20
2023/07/12 12:02:53;;;;;;;2.28;0.90;;;32.50;60.20;;;;;;4966257;28;20617;-19
2023/07/12 12:05:25;;;;;;;2.03;0.90;;;32.50;58.40;;;;;;4951997;28;20593;-20
2023/07/12 12:07:52;;;;;;;1.65;0.90;;;32.50;61.60;;;;;;4934969;28;20023;-19
2023/07/12 12:10:24;;;;;;;2.97;1.00;;;32.50;61.00;;;;;;4960747;28;20484;-20
2023/07/12 12:12:52;;;;;;;1.85;0.90;;;32.40;59.00;;;;;;4959674;28;20019;-19
2023/07/12 12:15:27;;;;;;;2.20;0.90;;;32.20;59.20;;;;;;4962954;28;20177;-19
2023/07/12 12:17:55;;;;;;;2.50;1.20;;;32.00;57.30;;;;;;4963850;28;20890;-19
2023/07/12 12:20:26;;;;;;;1.88;1.05;;;31.90;59.60;;;;;;4961768;28;20116;-19
2023/07/12 12:23:10;;;;;;;1.92;0.93;;;31.80;60.40;;;;;;4939727;28;20049;-20
2023/07/12 12:25:50;;;;;;;3.03;1.30;;;31.80;57.60;;;;;;4951762;28;20469;-19
2023/07/12 12:28:37;;;;;;;1.67;0.90;;;31.80;58.50;;;;;;4940712;28;20023;-19
2023/07/12 12:31:16;;;;;;;0.83;0.80;;;31.80;54.90;;;;;;4960469;28;20035;-20
2023/07/12 12:33:50;;;;;;;4.00;0.90;;;31.70;56.40;;;;;;4965013;28;20038;-19
2023/07/12 12:36:28;;;;;;;1.13;1.00;;;31.60;57.00;;;;;;4949653;28;20057;-20
2023/07/12 12:39:11;;;;;;;1.42;0.80;;;31.40;56.30;;;;;;4941612;28;20676;-19
2023/07/12 12:41:48;;;;;;;1.75;0.80;;;31.40;59.10;;;;;;4959843;28;20038;-19
2023/07/12 12:44:15;;;;;;;2.00;0.80;;;31.50;59.50;;;;;;4940423;28;21841;-20
2023/07/12 12:46:42;;;;;;;2.10;0.90;;;31.70;62.20;;;;;;4963804;28;20031;-19
2023/07/12 12:49:29;;;;;;;1.23;0.88;;;31.80;59.90;;;;;;4962951;28;20121;-19
2023/07/12 12:51:58;;;;;;;1.63;1.00;;;31.80;56.80;;;;;;4966965;28;20093;-19
2023/07/12 12:54:24;;;;;;;1.33;0.90;;;31.80;58.60;;;;;;4945531;28;20493;-19
2023/07/12 12:56:51;;;;;;;1.63;0.97;;;31.80;59.00;;;;;;4968289;28;20125;-20
2023/07/12 12:59:18;;;;;;;1.73;0.70;;;32.00;58.90;;;;;;4951028;28;20381;-20